Gaylordsville, Connecticut
Current Conditions -  °F | °C
As of 8:31 PM on Sunday 21 Dec 2014 (Local Time) from KDXR Reporting Station
Light Snow Light Snow  
Wind Chill: 32°   Ceiling: 2000
Heat Index: 32°   Visibility: 3mi
Dew Point: 28°   Wind: 0mph
Humidity: 85%   Direction: NA
Pressure: 30.34"   Gusts: NA
Location:  41.65°N, 73.48°W
Report Text: KDXR 220131Z 00000KT 3SM -SN BR SCT008 OVC020 00/M02 A3034 RMK AO2 SNB27 P0000 T00001022
Loading
Personal Weather Stations






























Interactive Weather Map New forecast layout! Learn more

10-Day Weather Forecast

Advertisements
Track Severe Weather on mobile